Time;durP1;ratioP1;P1;durP2;ratioP2;P2;SDS_P1;SDS_P2;PMS_P1;PMS_P2;Temp;Humidity;BMP_temperature;BMP_pressure;BME280_temperature;BME280_humidity;BME280_pressure;Samples;Min_cycle;Max_cycle;Signal;HPM_P1;HPM_P2
2021/03/28 00:00:13;;;;;;;17.33;5.05;;;3.60;99.90;;;;;;5026379;28;20116;-60
2021/03/28 00:02:57;;;;;;;13.65;3.70;;;3.60;99.90;;;;;;5024366;28;20132;-60
2021/03/28 00:05:29;;;;;;;18.90;3.67;;;3.50;99.90;;;;;;5004091;28;20526;-60
2021/03/28 00:08:15;;;;;;;13.90;2.83;;;3.50;99.90;;;;;;5023326;28;20034;-60
2021/03/28 00:10:44;;;;;;;11.25;3.30;;;3.50;99.90;;;;;;5018446;28;20751;-60
2021/03/28 00:13:17;;;;;;;10.70;3.03;;;3.50;99.90;;;;;;5021874;28;20113;-60
2021/03/28 00:15:47;;;;;;;15.30;3.20;;;3.50;99.90;;;;;;5026804;28;20029;-60
2021/03/28 00:18:35;;;;;;;13.70;3.72;;;3.40;99.90;;;;;;5031745;28;20400;-59
2021/03/28 00:21:22;;;;;;;17.50;3.40;;;3.50;99.90;;;;;;5030279;28;20041;-59
2021/03/28 00:24:11;;;;;;;11.15;2.90;;;3.40;99.90;;;;;;5010131;28;20017;-59
2021/03/28 00:26:41;;;;;;;9.98;2.78;;;3.40;99.90;;;;;;5024387;28;20037;-61
2021/03/28 00:29:12;;;;;;;14.93;2.92;;;3.40;99.90;;;;;;5026133;28;20108;-61
2021/03/28 00:31:54;;;;;;;14.93;2.90;;;3.30;99.90;;;;;;5019848;28;20030;-60
2021/03/28 00:34:36;;;;;;;13.40;3.17;;;3.40;99.90;;;;;;5031051;28;20036;-60
2021/03/28 00:37:08;;;;;;;15.88;3.58;;;3.40;99.90;;;;;;5018687;28;20075;-60
2021/03/28 00:39:50;;;;;;;11.73;3.55;;;3.50;99.90;;;;;;5028851;28;20022;-61
2021/03/28 00:42:21;;;;;;;15.68;3.50;;;3.60;99.90;;;;;;5030464;28;20031;-60
2021/03/28 00:44:52;;;;;;;13.98;3.95;;;3.70;99.90;;;;;;5026660;28;20030;-60
2021/03/28 00:47:21;;;;;;;18.70;3.80;;;3.80;99.90;;;;;;5019775;28;20068;-61
2021/03/28 00:49:57;;;;;;;16.40;3.83;;;3.90;99.90;;;;;;5026994;28;20033;-60
2021/03/28 00:52:27;;;;;;;17.20;4.30;;;4.00;99.90;;;;;;5018651;28;20509;-61
2021/03/28 00:55:11;;;;;;;12.73;4.28;;;4.10;99.90;;;;;;5029050;28;20048;-59
2021/03/28 00:57:40;;;;;;;12.65;4.28;;;4.10;99.90;;;;;;5023459;28;20182;-59
2021/03/28 01:00:18;;;;;;;13.43;3.53;;;4.20;99.90;;;;;;5028321;28;20068;-60
2021/03/28 01:03:02;;;;;;;13.27;3.25;;;4.30;99.90;;;;;;5032170;28;20037;-61
2021/03/28 01:05:47;;;;;;;18.52;3.97;;;4.30;99.90;;;;;;5008612;28;20045;-60
2021/03/28 01:08:32;;;;;;;9.52;2.95;;;4.40;99.90;;;;;;5029435;28;20044;-59
2021/03/28 01:11:41;;;;;;;16.88;3.80;;;4.40;99.90;;;;;;5041803;28;20029;-61
2021/03/28 01:14:15;;;;;;;13.63;3.85;;;4.50;99.90;;;;;;5024449;28;20104;-61
2021/03/28 01:17:04;;;;;;;15.85;4.00;;;4.50;99.90;;;;;;5017481;28;20406;-59
2021/03/28 01:19:48;;;;;;;15.40;4.10;;;4.50;99.90;;;;;;5027392;28;20703;-61
2021/03/28 01:22:28;;;;;;;15.50;3.63;;;4.50;99.90;;;;;;5029454;28;20029;-61
2021/03/28 01:25:19;;;;;;;12.57;4.00;;;4.50;99.90;;;;;;5021457;28;20037;-60
2021/03/28 01:27:50;;;;;;;14.10;3.88;;;4.50;99.90;;;;;;5024480;28;20065;-60
2021/03/28 01:30:21;;;;;;;14.43;4.57;;;4.60;99.90;;;;;;5028753;28;20546;-60
2021/03/28 01:32:57;;;;;;;10.68;3.67;;;4.60;99.90;;;;;;5029424;28;20479;-60
2021/03/28 01:35:30;;;;;;;12.30;3.78;;;4.60;99.90;;;;;;5025663;28;20033;-62
2021/03/28 01:38:19;;;;;;;14.50;4.05;;;4.60;99.90;;;;;;5029437;28;20037;-60
2021/03/28 01:41:03;;;;;;;13.95;4.20;;;4.60;99.90;;;;;;5028458;28;20040;-60
2021/03/28 01:44:01;;;;;;;11.23;4.05;;;4.70;99.90;;;;;;5029421;28;20033;-61
2021/03/28 01:46:52;;;;;;;12.98;3.42;;;4.70;99.90;;;;;;5028387;28;20037;-60
2021/03/28 01:49:38;;;;;;;13.27;3.10;;;4.70;99.90;;;;;;5026834;28;20106;-59
2021/03/28 01:52:12;;;;;;;11.98;3.45;;;4.80;99.90;;;;;;5024684;28;20387;-61
2021/03/28 01:55:00;;;;;;;13.25;4.10;;;4.80;99.90;;;;;;5000572;28;20084;-59
2021/03/28 01:57:31;;;;;;;17.13;3.95;;;4.80;99.90;;;;;;5026113;28;20414;-61
2021/03/28 02:00:15;;;;;;;17.73;3.85;;;4.80;99.90;;;;;;5032564;28;20125;-60
2021/03/28 02:03:19;;;;;;;9.68;3.47;;;4.80;99.90;;;;;;5025262;28;20061;-58
2021/03/28 02:05:57;;;;;;;18.58;3.63;;;4.90;99.90;;;;;;4995215;28;20188;-58
2021/03/28 02:09:04;;;;;;;18.33;4.18;;;4.90;99.90;;;;;;5027853;28;20045;-60
2021/03/28 02:11:44;;;;;;;13.38;4.78;;;5.00;99.90;;;;;;5014464;28;20041;-60
2021/03/28 02:14:36;;;;;;;16.65;4.15;;;5.00;99.90;;;;;;5022803;28;20064;-60
2021/03/28 02:17:45;;;;;;;13.77;4.13;;;5.00;99.90;;;;;;5004994;28;20045;-59
2021/03/28 02:20:39;;;;;;;16.17;3.60;;;5.00;99.90;;;;;;5043871;28;20021;-60
2021/03/28 02:23:34;;;;;;;13.52;5.65;;;5.00;99.90;;;;;;5025231;28;20037;-63
2021/03/28 02:26:16;;;;;;;13.40;4.25;;;5.00;99.90;;;;;;5028415;28;20514;-60
2021/03/28 02:28:47;;;;;;;11.98;4.13;;;4.90;99.90;;;;;;5027999;28;20045;-59
2021/03/28 02:31:46;;;;;;;15.32;3.78;;;4.90;99.90;;;;;;5028755;28;20033;-57
2021/03/28 02:34:24;;;;;;;17.60;3.80;;;4.90;99.90;;;;;;5029219;28;20061;-60
2021/03/28 02:37:03;;;;;;;13.60;3.85;;;4.90;99.90;;;;;;5024353;28;20052;-59
2021/03/28 02:39:47;;;;;;;11.63;3.33;;;4.90;99.90;;;;;;5031062;28;20060;-60
2021/03/28 02:42:52;;;;;;;16.52;4.28;;;4.90;99.90;;;;;;5033179;28;20394;-60
2021/03/28 02:45:18;;;;;;;16.30;4.10;;;4.90;99.90;;;;;;5029608;28;20111;-60
2021/03/28 02:48:08;;;;;;;10.52;3.20;;;5.00;99.90;;;;;;5032518;28;20061;-60
2021/03/28 02:50:53;;;;;;;14.27;4.13;;;5.00;99.90;;;;;;5030316;28;20017;-59
2021/03/28 02:53:29;;;;;;;16.85;3.05;;;5.00;99.90;;;;;;5032851;28;20026;-59
2021/03/28 02:56:02;;;;;;;17.80;3.20;;;5.10;99.90;;;;;;5031744;28;20049;-58
2021/03/28 02:58:40;;;;;;;9.15;2.70;;;5.10;99.90;;;;;;5033352;28;20045;-60
2021/03/28 03:01:33;;;;;;;14.40;3.38;;;5.20;99.90;;;;;;5032959;28;20037;-60
2021/03/28 03:04:17;;;;;;;10.88;2.85;;;5.10;99.90;;;;;;5027076;28;20030;-58
2021/03/28 03:06:51;;;;;;;11.32;2.67;;;5.10;99.90;;;;;;5022502;28;20058;-59
2021/03/28 03:09:32;;;;;;;12.93;2.55;;;5.10;99.90;;;;;;5026647;28;20113;-59
2021/03/28 03:12:20;;;;;;;7.70;2.60;;;5.00;99.90;;;;;;5031853;28;20029;-59
2021/03/28 03:15:01;;;;;;;9.60;2.50;;;5.00;99.90;;;;;;5027449;28;20029;-60
2021/03/28 03:17:47;;;;;;;13.13;3.40;;;5.00;99.90;;;;;;5031750;28;20415;-61
2021/03/28 03:20:13;;;;;;;16.20;3.47;;;4.90;99.90;;;;;;5031362;28;20036;-60
2021/03/28 03:23:18;;;;;;;14.48;3.05;;;4.90;99.90;;;;;;5021020;28;20029;-60
2021/03/28 03:26:20;;;;;;;14.23;2.47;;;4.90;99.90;;;;;;5031298;28;20033;-60
2021/03/28 03:29:21;;;;;;;9.98;2.58;;;4.80;99.90;;;;;;5031264;28;20030;-59
2021/03/28 03:31:56;;;;;;;12.15;2.75;;;4.80;99.90;;;;;;5012289;28;20037;-59
2021/03/28 03:34:51;;;;;;;9.65;2.75;;;4.70;99.90;;;;;;5020409;28;20112;-60
2021/03/28 03:37:25;;;;;;;15.43;2.75;;;4.60;99.90;;;;;;5026601;28;20033;-60
2021/03/28 03:40:28;;;;;;;12.35;3.05;;;4.50;99.90;;;;;;5031012;28;20040;-61
2021/03/28 03:43:26;;;;;;;10.02;2.00;;;4.40;99.90;;;;;;5026674;28;20037;-59
2021/03/28 03:46:09;;;;;;;18.35;2.70;;;4.30;99.90;;;;;;4993099;28;20050;-60
2021/03/28 03:48:37;;;;;;;8.38;2.53;;;4.20;99.90;;;;;;5029674;28;20048;-60
2021/03/28 03:51:18;;;;;;;12.45;2.30;;;4.20;99.90;;;;;;5019555;28;20149;-58
2021/03/28 03:54:08;;;;;;;18.95;2.60;;;4.20;99.90;;;;;;5022906;28;20494;-60
2021/03/28 03:57:08;;;;;;;12.88;3.55;;;4.10;99.90;;;;;;5019929;28;20116;-60
2021/03/28 03:59:54;;;;;;;9.02;2.88;;;4.10;99.90;;;;;;5029210;28;20502;-59
2021/03/28 04:02:41;;;;;;;11.35;2.83;;;4.00;99.90;;;;;;5016155;28;20021;-60
2021/03/28 04:05:45;;;;;;;13.50;2.85;;;4.10;99.90;;;;;;5011593;28;20049;-60
2021/03/28 04:08:19;;;;;;;13.40;2.55;;;4.10;99.90;;;;;;5030731;28;20032;-60
2021/03/28 04:10:57;;;;;;;12.90;2.40;;;4.10;99.90;;;;;;5030716;28;20128;-60
2021/03/28 04:13:53;;;;;;;11.52;2.30;;;4.20;99.90;;;;;;5030918;28;20434;-60
2021/03/28 04:16:51;;;;;;;7.28;2.10;;;4.20;99.90;;;;;;5030131;28;20048;-57
2021/03/28 04:19:31;;;;;;;13.00;2.22;;;4.30;99.90;;;;;;5028185;28;20060;-59
2021/03/28 04:22:06;;;;;;;8.95;2.83;;;4.30;99.90;;;;;;5030962;28;20029;-60
2021/03/28 04:24:57;;;;;;;11.98;3.20;;;4.40;99.90;;;;;;5030278;28;20033;-60
2021/03/28 04:27:37;;;;;;;6.55;1.85;;;4.40;99.90;;;;;;5000105;28;20041;-59
2021/03/28 04:30:04;;;;;;;9.63;2.28;;;4.50;99.90;;;;;;5029356;28;20034;-59
2021/03/28 04:32:56;;;;;;;10.18;3.08;;;4.50;99.90;;;;;;5030591;28;20503;-59
2021/03/28 04:36:11;;;;;;;9.95;2.30;;;4.60;99.90;;;;;;5032251;28;20104;-60
2021/03/28 04:38:46;;;;;;;15.23;3.08;;;4.60;99.90;;;;;;5007464;28;20155;-59
2021/03/28 04:41:49;;;;;;;9.48;2.50;;;4.70;99.90;;;;;;5030286;28;20041;-60
2021/03/28 04:44:49;;;;;;;6.35;2.13;;;4.70;99.90;;;;;;5030302;28;20044;-61
2021/03/28 04:47:53;;;;;;;8.15;2.25;;;4.70;99.90;;;;;;5018209;28;20041;-60
2021/03/28 04:50:49;;;;;;;12.50;2.60;;;4.80;99.90;;;;;;5029460;28;20026;-59
2021/03/28 04:53:32;;;;;;;7.75;2.95;;;4.80;99.90;;;;;;5016377;28;20025;-60
2021/03/28 04:56:13;;;;;;;6.55;2.08;;;4.80;99.90;;;;;;5010058;28;20037;-60
2021/03/28 04:58:57;;;;;;;16.30;2.53;;;4.80;99.90;;;;;;5028746;28;20048;-59
2021/03/28 05:01:50;;;;;;;11.18;2.90;;;4.80;99.90;;;;;;5028385;28;20044;-58
2021/03/28 05:04:55;;;;;;;8.15;2.83;;;4.80;99.90;;;;;;5026299;28;20041;-58
2021/03/28 05:07:43;;;;;;;7.63;2.47;;;4.80;99.90;;;;;;5028691;28;20037;-59
2021/03/28 05:10:28;;;;;;;8.52;2.30;;;4.80;99.90;;;;;;5029630;28;20036;-58
2021/03/28 05:13:24;;;;;;;11.98;2.45;;;4.90;99.90;;;;;;5025656;28;20036;-58
2021/03/28 05:15:58;;;;;;;9.27;2.97;;;4.90;99.90;;;;;;5023786;28;20061;-58
2021/03/28 05:19:02;;;;;;;12.35;3.42;;;4.90;99.90;;;;;;5013475;28;20109;-59
2021/03/28 05:21:44;;;;;;;6.38;2.08;;;5.00;99.90;;;;;;5027920;28;20172;-59
2021/03/28 05:24:44;;;;;;;10.82;2.75;;;5.00;99.90;;;;;;5018356;28;20502;-59
2021/03/28 05:27:31;;;;;;;8.65;3.00;;;5.00;99.90;;;;;;5027011;28;20120;-61
2021/03/28 05:30:39;;;;;;;14.00;3.95;;;5.00;99.90;;;;;;5018155;28;20025;-60
2021/03/28 05:33:16;;;;;;;13.07;4.38;;;5.10;99.90;;;;;;5028424;28;20482;-60
2021/03/28 05:36:19;;;;;;;11.68;3.17;;;5.10;99.90;;;;;;5029099;28;20025;-57
2021/03/28 05:39:08;;;;;;;11.45;2.72;;;5.10;99.90;;;;;;5028031;28;20057;-58
2021/03/28 05:41:47;;;;;;;9.70;2.30;;;5.20;99.90;;;;;;5019100;28;20027;-59
2021/03/28 05:44:27;;;;;;;9.98;2.28;;;5.30;99.90;;;;;;5029847;28;20034;-60
2021/03/28 05:47:19;;;;;;;11.30;2.00;;;5.30;99.90;;;;;;5028705;28;20565;-61
2021/03/28 05:50:27;;;;;;;6.43;2.40;;;5.40;99.90;;;;;;5026353;28;20116;-60
2021/03/28 05:53:04;;;;;;;12.20;2.38;;;5.40;99.90;;;;;;5011818;28;20034;-59
2021/03/28 05:55:47;;;;;;;9.40;2.33;;;5.40;99.90;;;;;;5027248;28;20026;-59
2021/03/28 05:58:18;;;;;;;9.88;3.08;;;5.50;99.90;;;;;;5004782;28;20530;-60
2021/03/28 06:00:47;;;;;;;9.65;2.70;;;5.50;99.90;;;;;;5029341;28;20036;-60
2021/03/28 06:03:30;;;;;;;6.38;2.50;;;5.60;99.90;;;;;;5022507;28;20109;-60
2021/03/28 06:06:08;;;;;;;17.77;2.83;;;5.60;99.90;;;;;;5009245;28;20119;-60
2021/03/28 06:08:48;;;;;;;9.93;2.20;;;5.60;99.90;;;;;;5018078;28;20279;-58
2021/03/28 06:11:26;;;;;;;10.43;1.98;;;5.60;99.90;;;;;;5024645;28;20022;-57
2021/03/28 06:14:24;;;;;;;10.18;2.60;;;5.70;99.90;;;;;;5021846;28;20025;-59
2021/03/28 06:17:12;;;;;;;6.55;2.45;;;5.70;99.90;;;;;;5027978;28;20036;-59
2021/03/28 06:20:29;;;;;;;7.38;2.17;;;5.80;99.90;;;;;;5028197;28;20099;-60
2021/03/28 06:23:13;;;;;;;8.93;2.05;;;5.80;99.90;;;;;;5029651;28;20508;-58
2021/03/28 06:26:04;;;;;;;15.55;2.65;;;5.90;99.90;;;;;;5028840;28;20025;-60
2021/03/28 06:28:47;;;;;;;16.67;2.63;;;5.90;99.90;;;;;;5025597;28;20033;-61
2021/03/28 06:31:19;;;;;;;7.35;2.05;;;6.10;99.90;;;;;;5013124;28;20038;-59
2021/03/28 06:34:02;;;;;;;12.02;2.85;;;6.10;99.90;;;;;;5026787;28;20029;-59
2021/03/28 06:36:56;;;;;;;5.93;2.03;;;6.30;99.90;;;;;;5028746;28;20058;-58
2021/03/28 06:39:40;;;;;;;4.65;1.88;;;6.40;99.90;;;;;;5028325;28;20064;-60
2021/03/28 06:42:33;;;;;;;9.13;2.50;;;6.50;99.90;;;;;;5012859;28;20037;-59
2021/03/28 06:45:36;;;;;;;6.68;1.98;;;6.50;99.90;;;;;;5027804;28;20057;-60
2021/03/28 06:48:31;;;;;;;8.38;1.90;;;6.60;99.90;;;;;;5024461;28;20026;-61
2021/03/28 06:51:34;;;;;;;12.75;2.50;;;6.60;99.90;;;;;;5023534;28;20083;-59
2021/03/28 06:54:20;;;;;;;11.85;2.22;;;6.70;99.90;;;;;;5029289;28;20030;-58
2021/03/28 06:56:48;;;;;;;10.65;2.45;;;6.80;99.90;;;;;;5025437;28;20025;-59
2021/03/28 06:59:52;;;;;;;10.30;2.42;;;6.90;99.90;;;;;;4994968;28;20450;-59
2021/03/28 07:03:09;;;;;;;13.43;2.65;;;7.00;99.90;;;;;;5027933;28;20020;-59
2021/03/28 07:05:51;;;;;;;21.17;9.07;;;7.00;99.90;;;;;;4998751;28;20038;-59
2021/03/28 07:08:45;;;;;;;8.15;2.78;;;7.10;99.90;;;;;;5024593;28;20040;-60
2021/03/28 07:11:47;;;;;;;38.10;11.70;;;7.20;99.90;;;;;;4995383;28;20654;-60
2021/03/28 07:14:24;;;;;;;13.43;4.72;;;7.20;99.90;;;;;;5029931;28;20041;-60
2021/03/28 07:17:27;;;;;;;15.98;4.55;;;7.30;99.90;;;;;;5017267;28;20041;-60
2021/03/28 07:20:20;;;;;;;14.15;4.05;;;7.30;99.90;;;;;;5027583;28;20445;-58
2021/03/28 07:23:10;;;;;;;19.80;6.20;;;7.40;99.90;;;;;;5029572;28;20030;-59
2021/03/28 07:25:49;;;;;;;26.23;8.73;;;7.40;99.90;;;;;;5031818;28;20510;-60
2021/03/28 07:28:53;;;;;;;30.77;10.95;;;7.50;99.90;;;;;;5019809;28;20648;-59
2021/03/28 07:31:43;;;;;;;14.43;5.32;;;7.50;99.90;;;;;;5030437;28;20029;-61
2021/03/28 07:34:21;;;;;;;16.60;6.70;;;7.50;99.90;;;;;;5032052;28;20505;-61
2021/03/28 07:37:09;;;;;;;18.77;7.78;;;7.50;99.90;;;;;;5024454;28;20032;-61
2021/03/28 07:39:50;;;;;;;9.18;3.42;;;7.60;99.90;;;;;;5020303;28;20033;-61
2021/03/28 07:42:36;;;;;;;14.55;6.55;;;7.60;99.90;;;;;;5027191;28;20029;-62
2021/03/28 07:45:41;;;;;;;9.13;4.28;;;7.70;99.90;;;;;;5029260;28;20199;-62
2021/03/28 07:48:20;;;;;;;12.68;3.17;;;7.80;99.90;;;;;;5027789;28;20049;-61
2021/03/28 07:50:57;;;;;;;13.35;4.35;;;7.90;99.90;;;;;;5029637;28;20089;-61
2021/03/28 07:53:58;;;;;;;13.30;4.90;;;8.00;99.90;;;;;;5031341;28;20026;-60
2021/03/28 07:56:35;;;;;;;10.82;2.70;;;8.20;99.90;;;;;;5032792;28;20029;-59
2021/03/28 07:59:27;;;;;;;25.40;7.55;;;8.30;99.90;;;;;;5007700;28;20037;-62
2021/03/28 08:02:20;;;;;;;11.80;3.67;;;8.30;99.90;;;;;;5029327;28;20036;-58
2021/03/28 08:05:04;;;;;;;21.25;7.10;;;8.40;99.90;;;;;;5031290;28;20037;-58
2021/03/28 08:07:38;;;;;;;47.75;22.33;;;8.50;99.90;;;;;;5003122;28;20052;-61
2021/03/28 08:10:41;;;;;;;9.85;3.78;;;8.50;99.90;;;;;;5018632;28;20047;-61
2021/03/28 08:13:37;;;;;;;40.28;15.13;;;8.50;99.90;;;;;;5030934;28;20116;-61
2021/03/28 08:16:26;;;;;;;87.32;29.25;;;8.50;99.90;;;;;;5028076;28;20029;-61
2021/03/28 08:19:15;;;;;;;122.97;45.63;;;8.60;99.90;;;;;;5019181;28;20037;-61
2021/03/28 08:21:51;;;;;;;49.20;20.70;;;8.50;99.90;;;;;;5024398;28;20080;-59
2021/03/28 08:25:14;;;;;;;11.02;3.55;;;8.60;99.90;;;;;;5030284;28;20029;-58
2021/03/28 08:27:45;;;;;;;19.33;7.65;;;8.60;99.90;;;;;;5020167;28;20037;-59
2021/03/28 08:30:28;;;;;;;24.90;8.85;;;8.70;99.90;;;;;;5030487;28;20079;-58
2021/03/28 08:33:19;;;;;;;12.57;3.92;;;8.80;99.90;;;;;;5033423;28;20029;-59
2021/03/28 08:36:15;;;;;;;11.00;3.47;;;8.90;99.90;;;;;;5030073;28;20108;-58
2021/03/28 08:39:02;;;;;;;8.90;4.10;;;9.10;99.90;;;;;;5030224;28;20120;-59
2021/03/28 08:42:03;;;;;;;11.38;4.15;;;9.20;99.90;;;;;;5030116;28;20666;-57
2021/03/28 08:44:49;;;;;;;9.15;3.60;;;9.30;99.90;;;;;;5013656;28;20029;-60
2021/03/28 08:47:36;;;;;;;13.65;3.47;;;9.40;99.90;;;;;;5042464;28;20428;-59
2021/03/28 08:50:15;;;;;;;11.20;2.70;;;9.50;99.90;;;;;;5032737;28;20029;-59
2021/03/28 08:52:44;;;;;;;10.15;3.13;;;9.80;99.90;;;;;;5030427;28;20065;-60
2021/03/28 08:55:43;;;;;;;12.20;3.70;;;10.00;99.90;;;;;;5011185;28;20522;-59
2021/03/28 08:58:26;;;;;;;8.85;2.70;;;10.30;99.90;;;;;;4998674;28;20534;-57
2021/03/28 09:01:30;;;;;;;13.55;3.88;;;10.40;99.90;;;;;;5023258;28;20522;-59
2021/03/28 09:04:43;;;;;;;13.27;4.18;;;10.60;99.90;;;;;;5013201;28;20042;-61
2021/03/28 09:07:34;;;;;;;14.77;3.20;;;10.70;99.90;;;;;;4994763;28;20069;-59
2021/03/28 09:10:31;;;;;;;12.07;4.45;;;11.00;99.90;;;;;;5030036;28;20022;-61
2021/03/28 09:13:08;;;;;;;12.07;5.15;;;11.20;99.90;;;;;;5029487;28;20045;-60
2021/03/28 09:15:40;;;;;;;8.63;2.72;;;11.40;99.90;;;;;;5024846;28;20076;-60
2021/03/28 09:18:17;;;;;;;7.43;2.65;;;11.70;99.90;;;;;;5030087;28;20108;-60
2021/03/28 09:20:46;;;;;;;10.40;3.17;;;11.80;99.90;;;;;;5028231;28;20033;-60
2021/03/28 09:23:34;;;;;;;13.40;3.35;;;12.20;99.90;;;;;;5029683;28;20037;-60
2021/03/28 09:26:05;;;;;;;10.07;2.70;;;12.30;99.50;;;;;;5029170;28;20036;-60
2021/03/28 09:29:01;;;;;;;9.77;3.17;;;12.40;99.30;;;;;;5028273;28;20036;-61
2021/03/28 09:31:52;;;;;;;7.53;3.00;;;12.60;99.00;;;;;;5029353;28;20017;-60
2021/03/28 09:34:45;;;;;;;8.90;2.85;;;12.60;97.90;;;;;;5028929;28;20025;-60
2021/03/28 09:37:43;;;;;;;12.32;3.35;;;12.50;98.50;;;;;;5025713;28;20429;-59
2021/03/28 09:40:32;;;;;;;12.32;3.08;;;12.70;98.30;;;;;;5023829;28;20033;-61
2021/03/28 09:43:16;;;;;;;10.35;3.22;;;12.70;97.60;;;;;;5025420;28;20108;-59
2021/03/28 09:46:06;;;;;;;9.95;2.53;;;12.70;97.40;;;;;;5028767;28;20030;-61
2021/03/28 09:48:48;;;;;;;8.75;2.50;;;12.70;97.60;;;;;;5029037;28;20040;-61
2021/03/28 09:51:46;;;;;;;9.50;3.22;;;12.80;97.20;;;;;;5028554;28;20140;-61
2021/03/28 09:54:30;;;;;;;10.40;2.33;;;13.20;97.80;;;;;;5028633;28;20026;-60
2021/03/28 09:57:21;;;;;;;20.33;7.85;;;13.40;96.10;;;;;;5027305;28;20030;-60
2021/03/28 10:00:08;;;;;;;26.90;10.60;;;13.40;95.80;;;;;;5029118;28;20026;-61
2021/03/28 10:02:42;;;;;;;67.88;32.97;;;13.40;94.90;;;;;;5025515;28;20021;-61
2021/03/28 10:05:27;;;;;;;48.42;27.88;;;13.30;94.50;;;;;;5027833;28;20075;-61
2021/03/28 10:08:20;;;;;;;21.23;10.15;;;13.30;94.50;;;;;;4971814;28;20106;-61
2021/03/28 10:11:01;;;;;;;19.70;9.10;;;13.40;94.40;;;;;;5024412;28;20037;-59
2021/03/28 10:13:46;;;;;;;10.00;5.90;;;13.30;94.10;;;;;;5026259;28;20384;-61
2021/03/28 10:16:12;;;;;;;15.45;6.05;;;13.30;94.70;;;;;;5029081;28;20490;-59
2021/03/28 10:18:53;;;;;;;11.85;4.65;;;13.10;94.70;;;;;;5013750;28;20491;-60
2021/03/28 10:21:46;;;;;;;14.48;6.10;;;13.10;95.20;;;;;;5027958;28;20092;-59
2021/03/28 10:24:14;;;;;;;15.73;5.93;;;13.10;94.60;;;;;;5028191;28;20037;-59
2021/03/28 10:27:06;;;;;;;21.60;9.38;;;13.30;95.60;;;;;;5021539;28;20483;-61
2021/03/28 10:29:46;;;;;;;15.02;5.80;;;13.30;95.20;;;;;;5023695;28;20044;-60
2021/03/28 10:32:32;;;;;;;9.68;3.15;;;13.60;94.20;;;;;;4993049;28;20033;-59
2021/03/28 10:35:51;;;;;;;5.00;2.97;;;13.70;93.60;;;;;;5015706;28;20030;-60
2021/03/28 10:38:39;;;;;;;7.90;2.95;;;13.50;93.30;;;;;;5019467;28;20048;-59
2021/03/28 10:41:42;;;;;;;6.93;1.83;;;13.60;93.10;;;;;;5019025;28;20454;-59
2021/03/28 10:44:50;;;;;;;6.40;1.70;;;13.30;92.80;;;;;;5025676;28;20541;-61
2021/03/28 10:47:50;;;;;;;2.72;1.35;;;13.70;93.20;;;;;;5006741;28;20846;-60
2021/03/28 10:50:53;;;;;;;8.15;2.30;;;14.10;91.70;;;;;;5003867;28;20120;-60
2021/03/28 10:53:43;;;;;;;9.77;2.67;;;14.70;91.70;;;;;;5017993;28;20022;-60
2021/03/28 10:56:40;;;;;;;9.18;2.22;;;14.60;90.30;;;;;;5027151;28;20032;-62
2021/03/28 10:59:31;;;;;;;7.68;2.10;;;14.70;90.60;;;;;;5017032;28;20034;-58
2021/03/28 11:02:41;;;;;;;7.63;2.05;;;14.80;90.00;;;;;;5030487;28;20499;-59
2021/03/28 11:05:43;;;;;;;7.75;1.95;;;14.70;89.90;;;;;;5030954;28;20033;-62
2021/03/28 11:08:30;;;;;;;9.57;2.35;;;14.30;90.90;;;;;;4995118;28;20041;-60
2021/03/28 11:11:11;;;;;;;10.23;4.22;;;14.30;91.30;;;;;;5015059;28;20021;-60
2021/03/28 11:13:58;;;;;;;24.83;14.70;;;14.50;91.40;;;;;;5031060;28;20386;-60
2021/03/28 11:16:51;;;;;;;10.13;3.30;;;14.60;90.90;;;;;;5024745;28;20021;-59
2021/03/28 11:19:47;;;;;;;11.70;2.10;;;14.60;90.80;;;;;;5030121;28;20026;-58
2021/03/28 11:22:17;;;;;;;8.35;2.15;;;14.50;90.20;;;;;;5029309;28;20395;-62
2021/03/28 11:25:06;;;;;;;4.43;1.63;;;14.70;90.00;;;;;;5032220;28;20471;-60
2021/03/28 11:27:59;;;;;;;7.55;2.10;;;15.20;89.30;;;;;;5027824;28;20049;-62
2021/03/28 11:30:36;;;;;;;10.25;2.38;;;15.50;86.60;;;;;;5015595;28;20022;-59
2021/03/28 11:33:28;;;;;;;9.70;2.42;;;15.50;85.20;;;;;;5016564;28;20018;-60
2021/03/28 11:35:57;;;;;;;6.82;3.15;;;15.10;85.40;;;;;;5011117;28;20024;-61
2021/03/28 11:38:22;;;;;;;5.35;1.90;;;15.30;87.50;;;;;;5016996;28;20136;-62
2021/03/28 11:40:54;;;;;;;9.40;2.00;;;15.40;87.70;;;;;;5015705;28;20042;-62
2021/03/28 11:43:36;;;;;;;7.93;1.88;;;15.70;85.70;;;;;;5022588;28;20420;-61
2021/03/28 11:46:05;;;;;;;5.15;1.50;;;15.50;83.50;;;;;;5016899;28;20028;-62
2021/03/28 11:48:45;;;;;;;6.43;1.92;;;15.30;82.60;;;;;;5016538;28;20036;-60
2021/03/28 11:51:19;;;;;;;6.65;2.08;;;15.20;83.60;;;;;;5020708;28;20033;-59
2021/03/28 11:53:49;;;;;;;11.40;2.25;;;15.20;82.70;;;;;;5016715;28;20429;-60
2021/03/28 11:56:45;;;;;;;8.77;2.03;;;15.20;84.40;;;;;;5029992;28;20029;-60
2021/03/28 11:59:22;;;;;;;4.93;1.63;;;15.30;82.70;;;;;;5015294;28;20041;-61
2021/03/28 12:01:57;;;;;;;6.72;2.28;;;15.20;80.90;;;;;;5028087;28;20028;-62
2021/03/28 12:04:36;;;;;;;6.40;1.77;;;15.50;83.00;;;;;;5033146;28;20048;-62
2021/03/28 12:07:27;;;;;;;7.78;1.67;;;15.60;82.50;;;;;;5014771;28;20045;-61
2021/03/28 12:09:59;;;;;;;6.38;2.03;;;15.50;79.80;;;;;;5026561;28;20041;-62
2021/03/28 12:12:28;;;;;;;5.75;1.95;;;15.90;81.10;;;;;;5023543;28;20399;-60
2021/03/28 12:14:54;;;;;;;5.40;2.20;;;16.10;79.50;;;;;;5028392;28;20110;-60
2021/03/28 12:17:23;;;;;;;11.57;2.90;;;16.30;80.30;;;;;;5033986;28;20068;-61
2021/03/28 12:20:19;;;;;;;8.25;2.03;;;16.30;77.20;;;;;;5038197;28;20028;-59
2021/03/28 12:22:54;;;;;;;5.82;2.10;;;16.10;77.70;;;;;;5031003;28;20083;-59
2021/03/28 12:25:25;;;;;;;5.22;2.03;;;15.90;78.20;;;;;;5031967;28;20487;-59
2021/03/28 12:27:56;;;;;;;5.38;1.40;;;15.90;78.20;;;;;;5027919;28;20032;-59
2021/03/28 12:30:28;;;;;;;7.82;1.92;;;16.00;78.20;;;;;;5026749;28;20116;-59
2021/03/28 12:33:05;;;;;;;9.23;1.83;;;16.00;74.70;;;;;;5030786;28;20025;-60
2021/03/28 12:35:35;;;;;;;6.22;1.67;;;16.20;75.40;;;;;;5018812;28;20445;-60
2021/03/28 12:38:19;;;;;;;5.28;1.75;;;16.10;75.10;;;;;;5029873;28;20033;-60
2021/03/28 12:40:46;;;;;;;6.70;2.30;;;16.20;74.30;;;;;;5026226;28;20048;-61
2021/03/28 12:43:35;;;;;;;9.77;2.17;;;16.00;72.60;;;;;;5027388;28;20516;-62
2021/03/28 12:46:23;;;;;;;12.02;1.92;;;16.10;72.80;;;;;;5020553;28;20386;-60
2021/03/28 12:48:52;;;;;;;15.70;4.45;;;16.00;72.80;;;;;;5029522;28;20034;-63
2021/03/28 12:51:24;;;;;;;7.80;1.80;;;16.00;72.90;;;;;;5030510;28;20021;-64
2021/03/28 12:53:51;;;;;;;9.90;2.20;;;15.90;72.90;;;;;;5024259;28;20369;-60
2021/03/28 12:56:25;;;;;;;5.43;1.77;;;15.90;72.70;;;;;;5025323;28;20025;-59
2021/03/28 12:58:54;;;;;;;14.55;4.05;;;16.00;71.30;;;;;;5023497;28;20029;-58
2021/03/28 13:01:25;;;;;;;10.82;5.53;;;15.80;72.80;;;;;;5038867;28;20040;-58
2021/03/28 13:03:52;;;;;;;10.93;2.75;;;15.70;72.50;;;;;;5033984;28;20395;-59
2021/03/28 13:06:38;;;;;;;6.85;2.25;;;15.80;73.00;;;;;;5029652;28;20036;-60
2021/03/28 13:09:06;;;;;;;4.88;2.15;;;15.90;71.70;;;;;;5016637;28;20045;-60
2021/03/28 13:11:52;;;;;;;5.57;1.98;;;16.10;73.40;;;;;;5027235;28;20033;-60
2021/03/28 13:14:37;;;;;;;8.60;1.88;;;16.10;71.70;;;;;;5043766;28;20029;-59
2021/03/28 13:17:14;;;;;;;4.43;1.92;;;16.10;71.20;;;;;;5029045;28;20635;-60
2021/03/28 13:19:43;;;;;;;6.82;1.73;;;15.80;70.10;;;;;;4999372;28;20173;-60
2021/03/28 13:22:37;;;;;;;10.50;3.30;;;15.90;70.70;;;;;;5027337;28;20029;-61
2021/03/28 13:25:29;;;;;;;8.93;3.88;;;16.10;71.00;;;;;;5028496;28;20036;-60
2021/03/28 13:28:28;;;;;;;13.93;5.20;;;16.20;69.60;;;;;;5028208;28;20033;-59
2021/03/28 13:31:22;;;;;;;9.10;2.10;;;16.20;69.10;;;;;;4963740;28;20148;-60
2021/03/28 13:33:51;;;;;;;6.55;2.92;;;16.30;68.80;;;;;;5032452;28;20053;-60
2021/03/28 13:36:17;;;;;;;9.35;3.70;;;16.60;69.70;;;;;;5018583;28;20137;-61
2021/03/28 13:38:58;;;;;;;8.65;2.53;;;16.60;67.60;;;;;;5031110;28;20041;-60
2021/03/28 13:41:28;;;;;;;6.60;1.75;;;16.40;66.60;;;;;;5037364;28;20099;-61
2021/03/28 13:44:08;;;;;;;7.38;2.20;;;16.10;67.10;;;;;;5020976;28;20541;-61
2021/03/28 13:46:44;;;;;;;8.27;2.00;;;16.20;69.10;;;;;;5028661;28;20111;-59
2021/03/28 13:49:38;;;;;;;5.10;1.80;;;16.30;67.80;;;;;;5028554;28;20434;-59
2021/03/28 13:52:17;;;;;;;9.18;1.90;;;16.20;66.60;;;;;;5024710;28;20087;-61
2021/03/28 13:54:46;;;;;;;4.70;1.58;;;16.20;67.30;;;;;;5018501;28;20845;-58
2021/03/28 13:57:16;;;;;;;6.25;1.90;;;16.30;67.40;;;;;;5027876;28;20036;-62
2021/03/28 14:00:20;;;;;;;6.50;1.77;;;16.30;66.80;;;;;;5028089;28;20037;-60
2021/03/28 14:02:49;;;;;;;5.78;2.05;;;16.30;64.40;;;;;;4986825;28;20484;-59
2021/03/28 14:05:19;;;;;;;7.85;2.38;;;16.40;66.40;;;;;;5015477;28;20053;-59
2021/03/28 14:07:47;;;;;;;12.07;2.72;;;16.30;66.90;;;;;;5013024;28;20502;-58
2021/03/28 14:10:22;;;;;;;8.85;2.45;;;16.50;67.00;;;;;;5029159;28;20032;-59
2021/03/28 14:13:04;;;;;;;7.88;1.60;;;16.70;66.30;;;;;;5009937;28;20094;-61
2021/03/28 14:15:40;;;;;;;8.60;2.13;;;16.50;64.90;;;;;;5026981;28;20112;-61